sensor_id;sensor_type;location;lat;lon;timestamp;pressure;altitude;pressure_sealevel;temperature
38114;BMP180;23926;53.222;6.354;2022-09-02T00:01:22;101966.00;;;17.50
38114;BMP180;23926;53.222;6.354;2022-09-02T00:03:49;101956.00;;;17.50
38114;BMP180;23926;53.222;6.354;2022-09-02T00:06:15;101952.00;;;17.50
38114;BMP180;23926;53.222;6.354;2022-09-02T00:08:42;101952.00;;;17.60
38114;BMP180;23926;53.222;6.354;2022-09-02T00:11:12;101946.00;;;17.60
38114;BMP180;23926;53.222;6.354;2022-09-02T00:13:38;101947.00;;;17.50
38114;BMP180;23926;53.222;6.354;2022-09-02T00:16:04;101950.00;;;17.50
38114;BMP180;23926;53.222;6.354;2022-09-02T00:18:30;101948.00;;;17.50
38114;BMP180;23926;53.222;6.354;2022-09-02T00:20:57;101939.00;;;17.50
38114;BMP180;23926;53.222;6.354;2022-09-02T00:23:22;101951.00;;;17.50
38114;BMP180;23926;53.222;6.354;2022-09-02T00:25:47;101945.00;;;17.40
38114;BMP180;23926;53.222;6.354;2022-09-02T00:28:14;101935.00;;;17.50
38114;BMP180;23926;53.222;6.354;2022-09-02T00:30:40;101935.00;;;17.40
38114;BMP180;23926;53.222;6.354;2022-09-02T00:33:06;101951.00;;;17.40
38114;BMP180;23926;53.222;6.354;2022-09-02T00:35:32;101938.00;;;17.40
38114;BMP180;23926;53.222;6.354;2022-09-02T00:37:58;101942.00;;;17.30
38114;BMP180;23926;53.222;6.354;2022-09-02T00:40:24;101936.00;;;17.30
38114;BMP180;23926;53.222;6.354;2022-09-02T00:42:50;101931.00;;;17.20
38114;BMP180;23926;53.222;6.354;2022-09-02T00:45:17;101931.00;;;17.20
38114;BMP180;23926;53.222;6.354;2022-09-02T00:47:44;101922.00;;;17.20
38114;BMP180;23926;53.222;6.354;2022-09-02T00:50:11;101925.00;;;17.20
38114;BMP180;23926;53.222;6.354;2022-09-02T00:52:44;101923.00;;;17.10
38114;BMP180;23926;53.222;6.354;2022-09-02T00:55:14;101924.00;;;17.10
38114;BMP180;23926;53.222;6.354;2022-09-02T00:57:44;101927.00;;;17.10
38114;BMP180;23926;53.222;6.354;2022-09-02T01:00:12;101921.00;;;17.00
38114;BMP180;23926;53.222;6.354;2022-09-02T01:02:41;101923.00;;;17.00
38114;BMP180;23926;53.222;6.354;2022-09-02T01:05:10;101913.00;;;16.90
38114;BMP180;23926;53.222;6.354;2022-09-02T01:07:36;101915.00;;;16.80
38114;BMP180;23926;53.222;6.354;2022-09-02T01:10:08;101925.00;;;16.80
38114;BMP180;23926;53.222;6.354;2022-09-02T01:12:34;101911.00;;;16.80
38114;BMP180;23926;53.222;6.354;2022-09-02T01:15:02;101914.00;;;16.70
38114;BMP180;23926;53.222;6.354;2022-09-02T01:17:28;101901.00;;;16.60
38114;BMP180;23926;53.222;6.354;2022-09-02T01:20:00;101900.00;;;16.60
38114;BMP180;23926;53.222;6.354;2022-09-02T01:22:30;101900.00;;;16.60
38114;BMP180;23926;53.222;6.354;2022-09-02T01:24:59;101904.00;;;16.50
38114;BMP180;23926;53.222;6.354;2022-09-02T01:27:25;101890.00;;;16.50
38114;BMP180;23926;53.222;6.354;2022-09-02T01:29:55;101895.00;;;16.50
38114;BMP180;23926;53.222;6.354;2022-09-02T01:32:22;101898.00;;;16.60
38114;BMP180;23926;53.222;6.354;2022-09-02T01:34:48;101889.00;;;16.60
38114;BMP180;23926;53.222;6.354;2022-09-02T01:37:14;101897.00;;;16.60
38114;BMP180;23926;53.222;6.354;2022-09-02T01:39:40;101893.00;;;16.60
38114;BMP180;23926;53.222;6.354;2022-09-02T01:42:05;101895.00;;;16.70
38114;BMP180;23926;53.222;6.354;2022-09-02T01:44:32;101897.00;;;16.60
38114;BMP180;23926;53.222;6.354;2022-09-02T01:46:58;101894.00;;;16.60
38114;BMP180;23926;53.222;6.354;2022-09-02T01:49:24;101888.00;;;16.60
38114;BMP180;23926;53.222;6.354;2022-09-02T01:51:53;101882.00;;;16.60
38114;BMP180;23926;53.222;6.354;2022-09-02T01:54:19;101875.00;;;16.50
38114;BMP180;23926;53.222;6.354;2022-09-02T01:56:44;101871.00;;;16.50
38114;BMP180;23926;53.222;6.354;2022-09-02T01:59:09;101870.00;;;16.40
38114;BMP180;23926;53.222;6.354;2022-09-02T02:01:41;101864.00;;;16.40
38114;BMP180;23926;53.222;6.354;2022-09-02T02:04:07;101872.00;;;16.40
38114;BMP180;23926;53.222;6.354;2022-09-02T02:06:32;101860.00;;;16.40
38114;BMP180;23926;53.222;6.354;2022-09-02T02:08:58;101864.00;;;16.40
38114;BMP180;23926;53.222;6.354;2022-09-02T02:11:24;101870.00;;;16.30
38114;BMP180;23926;53.222;6.354;2022-09-02T02:13:49;101862.00;;;16.30
38114;BMP180;23926;53.222;6.354;2022-09-02T02:16:15;101859.00;;;16.30
38114;BMP180;23926;53.222;6.354;2022-09-02T02:18:41;101858.00;;;16.30
38114;BMP180;23926;53.222;6.354;2022-09-02T02:21:07;101854.00;;;16.20
38114;BMP180;23926;53.222;6.354;2022-09-02T02:23:32;101851.00;;;16.20
38114;BMP180;23926;53.222;6.354;2022-09-02T02:25:58;101857.00;;;16.20
38114;BMP180;23926;53.222;6.354;2022-09-02T02:28:23;101858.00;;;16.20
38114;BMP180;23926;53.222;6.354;2022-09-02T02:30:49;101857.00;;;16.20
38114;BMP180;23926;53.222;6.354;2022-09-02T02:33:14;101853.00;;;16.20
38114;BMP180;23926;53.222;6.354;2022-09-02T02:35:40;101853.00;;;16.20
38114;BMP180;23926;53.222;6.354;2022-09-02T02:38:06;101855.00;;;16.20
38114;BMP180;23926;53.222;6.354;2022-09-02T02:40:31;101853.00;;;16.20
38114;BMP180;23926;53.222;6.354;2022-09-02T02:42:57;101844.00;;;16.20
38114;BMP180;23926;53.222;6.354;2022-09-02T02:45:23;101857.00;;;16.20
38114;BMP180;23926;53.222;6.354;2022-09-02T02:47:49;101851.00;;;16.20
38114;BMP180;23926;53.222;6.354;2022-09-02T02:50:17;101854.00;;;16.20
38114;BMP180;23926;53.222;6.354;2022-09-02T02:52:43;101846.00;;;16.20
38114;BMP180;23926;53.222;6.354;2022-09-02T02:55:10;101835.00;;;16.20
38114;BMP180;23926;53.222;6.354;2022-09-02T02:57:38;101843.00;;;16.20
38114;BMP180;23926;53.222;6.354;2022-09-02T03:00:13;101846.00;;;16.20
38114;BMP180;23926;53.222;6.354;2022-09-02T03:02:39;101847.00;;;16.20
38114;BMP180;23926;53.222;6.354;2022-09-02T03:05:06;101848.00;;;16.20
38114;BMP180;23926;53.222;6.354;2022-09-02T03:07:32;101844.00;;;16.20
38114;BMP180;23926;53.222;6.354;2022-09-02T03:09:58;101838.00;;;16.10
38114;BMP180;23926;53.222;6.354;2022-09-02T03:12:24;101835.00;;;16.10
38114;BMP180;23926;53.222;6.354;2022-09-02T03:14:50;101843.00;;;16.10
38114;BMP180;23926;53.222;6.354;2022-09-02T03:17:16;101834.00;;;16.10
38114;BMP180;23926;53.222;6.354;2022-09-02T03:19:42;101837.00;;;16.10
38114;BMP180;23926;53.222;6.354;2022-09-02T03:22:07;101835.00;;;16.10
38114;BMP180;23926;53.222;6.354;2022-09-02T03:24:36;101829.00;;;16.10
38114;BMP180;23926;53.222;6.354;2022-09-02T03:27:02;101828.00;;;16.10
38114;BMP180;23926;53.222;6.354;2022-09-02T03:29:27;101838.00;;;16.00
38114;BMP180;23926;53.222;6.354;2022-09-02T03:31:53;101820.00;;;16.00
38114;BMP180;23926;53.222;6.354;2022-09-02T03:34:18;101816.00;;;16.00
38114;BMP180;23926;53.222;6.354;2022-09-02T03:36:44;101818.00;;;15.90
38114;BMP180;23926;53.222;6.354;2022-09-02T03:39:11;101836.00;;;15.90
38114;BMP180;23926;53.222;6.354;2022-09-02T03:41:37;101827.00;;;15.90
38114;BMP180;23926;53.222;6.354;2022-09-02T03:44:05;101825.00;;;15.80
38114;BMP180;23926;53.222;6.354;2022-09-02T03:46:31;101811.00;;;15.90
38114;BMP180;23926;53.222;6.354;2022-09-02T03:48:56;101816.00;;;15.80
38114;BMP180;23926;53.222;6.354;2022-09-02T03:51:22;101823.00;;;15.80
38114;BMP180;23926;53.222;6.354;2022-09-02T03:53:48;101816.00;;;15.80
38114;BMP180;23926;53.222;6.354;2022-09-02T03:56:14;101811.00;;;15.80
38114;BMP180;23926;53.222;6.354;2022-09-02T03:58:42;101811.00;;;15.70
38114;BMP180;23926;53.222;6.354;2022-09-02T04:01:12;101812.00;;;15.70
38114;BMP180;23926;53.222;6.354;2022-09-02T04:03:38;101804.00;;;15.70
38114;BMP180;23926;53.222;6.354;2022-09-02T04:06:03;101798.00;;;15.70
38114;BMP180;23926;53.222;6.354;2022-09-02T04:08:29;101800.00;;;15.60
38114;BMP180;23926;53.222;6.354;2022-09-02T04:10:54;101814.00;;;15.50
38114;BMP180;23926;53.222;6.354;2022-09-02T04:13:20;101792.00;;;15.50
38114;BMP180;23926;53.222;6.354;2022-09-02T04:15:46;101802.00;;;15.50
38114;BMP180;23926;53.222;6.354;2022-09-02T04:18:14;101802.00;;;15.50
38114;BMP180;23926;53.222;6.354;2022-09-02T04:20:41;101794.00;;;15.40
38114;BMP180;23926;53.222;6.354;2022-09-02T04:23:07;101788.00;;;15.30
38114;BMP180;23926;53.222;6.354;2022-09-02T04:25:33;101790.00;;;15.30
38114;BMP180;23926;53.222;6.354;2022-09-02T04:28:02;101799.00;;;15.20
38114;BMP180;23926;53.222;6.354;2022-09-02T04:30:27;101793.00;;;15.20
38114;BMP180;23926;53.222;6.354;2022-09-02T04:32:53;101790.00;;;15.10
38114;BMP180;23926;53.222;6.354;2022-09-02T04:35:18;101787.00;;;15.10
38114;BMP180;23926;53.222;6.354;2022-09-02T04:37:44;101788.00;;;15.10
38114;BMP180;23926;53.222;6.354;2022-09-02T04:40:12;101785.00;;;15.00
38114;BMP180;23926;53.222;6.354;2022-09-02T04:42:37;101789.00;;;15.00
38114;BMP180;23926;53.222;6.354;2022-09-02T04:45:03;101781.00;;;15.00
38114;BMP180;23926;53.222;6.354;2022-09-02T04:47:29;101788.00;;;15.00
38114;BMP180;23926;53.222;6.354;2022-09-02T04:49:55;101782.00;;;15.00
38114;BMP180;23926;53.222;6.354;2022-09-02T04:52:20;101795.00;;;15.00
38114;BMP180;23926;53.222;6.354;2022-09-02T04:54:46;101794.00;;;14.90
38114;BMP180;23926;53.222;6.354;2022-09-02T04:57:12;101788.00;;;14.90
38114;BMP180;23926;53.222;6.354;2022-09-02T04:59:37;101794.00;;;14.90
38114;BMP180;23926;53.222;6.354;2022-09-02T05:02:03;101776.00;;;14.90
38114;BMP180;23926;53.222;6.354;2022-09-02T05:04:29;101776.00;;;14.80
38114;BMP180;23926;53.222;6.354;2022-09-02T05:06:56;101782.00;;;14.80
38114;BMP180;23926;53.222;6.354;2022-09-02T05:09:24;101780.00;;;14.70
38114;BMP180;23926;53.222;6.354;2022-09-02T05:11:49;101780.00;;;14.80
38114;BMP180;23926;53.222;6.354;2022-09-02T05:14:16;101778.00;;;14.80
38114;BMP180;23926;53.222;6.354;2022-09-02T05:16:41;101787.00;;;14.80
38114;BMP180;23926;53.222;6.354;2022-09-02T05:19:08;101786.00;;;14.70
38114;BMP180;23926;53.222;6.354;2022-09-02T05:21:42;101782.00;;;14.70
38114;BMP180;23926;53.222;6.354;2022-09-02T05:24:08;101785.00;;;14.70
38114;BMP180;23926;53.222;6.354;2022-09-02T05:26:34;101785.00;;;14.80
38114;BMP180;23926;53.222;6.354;2022-09-02T05:29:02;101774.00;;;14.80
38114;BMP180;23926;53.222;6.354;2022-09-02T05:31:27;101785.00;;;14.90
38114;BMP180;23926;53.222;6.354;2022-09-02T05:33:53;101777.00;;;14.90
38114;BMP180;23926;53.222;6.354;2022-09-02T05:36:20;101784.00;;;14.90
38114;BMP180;23926;53.222;6.354;2022-09-02T05:38:47;101788.00;;;14.90
38114;BMP180;23926;53.222;6.354;2022-09-02T05:41:22;101787.00;;;15.00
38114;BMP180;23926;53.222;6.354;2022-09-02T05:43:50;101778.00;;;15.00
38114;BMP180;23926;53.222;6.354;2022-09-02T05:46:17;101786.00;;;15.10
38114;BMP180;23926;53.222;6.354;2022-09-02T05:48:44;101773.00;;;15.20
38114;BMP180;23926;53.222;6.354;2022-09-02T05:51:29;101774.00;;;15.20
38114;BMP180;23926;53.222;6.354;2022-09-02T05:53:56;101774.00;;;15.30
38114;BMP180;23926;53.222;6.354;2022-09-02T05:56:22;101769.00;;;15.30
38114;BMP180;23926;53.222;6.354;2022-09-02T05:58:48;101769.00;;;15.40
38114;BMP180;23926;53.222;6.354;2022-09-02T06:01:15;101776.00;;;15.50
38114;BMP180;23926;53.222;6.354;2022-09-02T06:03:41;101769.00;;;15.50
38114;BMP180;23926;53.222;6.354;2022-09-02T06:06:07;101771.00;;;15.60
38114;BMP180;23926;53.222;6.354;2022-09-02T06:08:33;101774.00;;;15.80
38114;BMP180;23926;53.222;6.354;2022-09-02T06:10:59;101763.00;;;16.00
38114;BMP180;23926;53.222;6.354;2022-09-02T06:13:30;101763.00;;;16.10
38114;BMP180;23926;53.222;6.354;2022-09-02T06:15:57;101763.00;;;16.30
38114;BMP180;23926;53.222;6.354;2022-09-02T06:18:23;101761.00;;;16.50
38114;BMP180;23926;53.222;6.354;2022-09-02T06:20:48;101768.00;;;16.60
38114;BMP180;23926;53.222;6.354;2022-09-02T06:23:14;101761.00;;;16.80
38114;BMP180;23926;53.222;6.354;2022-09-02T06:25:42;101769.00;;;16.90
38114;BMP180;23926;53.222;6.354;2022-09-02T06:28:09;101769.00;;;17.00
38114;BMP180;23926;53.222;6.354;2022-09-02T06:30:37;101770.00;;;17.10
38114;BMP180;23926;53.222;6.354;2022-09-02T06:33:03;101768.00;;;17.10
38114;BMP180;23926;53.222;6.354;2022-09-02T06:35:29;101781.00;;;17.20
38114;BMP180;23926;53.222;6.354;2022-09-02T06:37:56;101770.00;;;17.30
38114;BMP180;23926;53.222;6.354;2022-09-02T06:40:22;101781.00;;;17.40
38114;BMP180;23926;53.222;6.354;2022-09-02T06:42:47;101777.00;;;17.50
38114;BMP180;23926;53.222;6.354;2022-09-02T06:45:13;101777.00;;;17.50
38114;BMP180;23926;53.222;6.354;2022-09-02T06:47:39;101776.00;;;17.50
38114;BMP180;23926;53.222;6.354;2022-09-02T06:50:04;101772.00;;;17.60
38114;BMP180;23926;53.222;6.354;2022-09-02T06:52:30;101779.00;;;17.70
38114;BMP180;23926;53.222;6.354;2022-09-02T06:54:55;101775.00;;;17.80
38114;BMP180;23926;53.222;6.354;2022-09-02T06:57:21;101770.00;;;17.80
38114;BMP180;23926;53.222;6.354;2022-09-02T06:59:46;101766.00;;;17.90
38114;BMP180;23926;53.222;6.354;2022-09-02T07:02:12;101763.00;;;18.00
38114;BMP180;23926;53.222;6.354;2022-09-02T07:04:39;101764.00;;;18.10
38114;BMP180;23926;53.222;6.354;2022-09-02T07:07:23;101753.00;;;18.30
38114;BMP180;23926;53.222;6.354;2022-09-02T07:09:48;101770.00;;;18.40
38114;BMP180;23926;53.222;6.354;2022-09-02T07:12:14;101764.00;;;18.50
38114;BMP180;23926;53.222;6.354;2022-09-02T07:14:42;101764.00;;;18.70
38114;BMP180;23926;53.222;6.354;2022-09-02T07:17:10;101769.00;;;18.80
38114;BMP180;23926;53.222;6.354;2022-09-02T07:19:36;101768.00;;;18.90
38114;BMP180;23926;53.222;6.354;2022-09-02T07:22:04;101773.00;;;19.00
38114;BMP180;23926;53.222;6.354;2022-09-02T07:24:30;101766.00;;;19.10
38114;BMP180;23926;53.222;6.354;2022-09-02T07:26:55;101776.00;;;19.20
38114;BMP180;23926;53.222;6.354;2022-09-02T07:29:21;101753.00;;;19.40
38114;BMP180;23926;53.222;6.354;2022-09-02T07:31:47;101761.00;;;19.50
38114;BMP180;23926;53.222;6.354;2022-09-02T07:34:13;101757.00;;;19.70
38114;BMP180;23926;53.222;6.354;2022-09-02T07:36:40;101766.00;;;19.90
38114;BMP180;23926;53.222;6.354;2022-09-02T07:39:09;101766.00;;;20.10
38114;BMP180;23926;53.222;6.354;2022-09-02T07:41:35;101768.00;;;20.20
38114;BMP180;23926;53.222;6.354;2022-09-02T07:44:03;101759.00;;;20.30
38114;BMP180;23926;53.222;6.354;2022-09-02T07:46:28;101769.00;;;20.30
38114;BMP180;23926;53.222;6.354;2022-09-02T07:48:56;101757.00;;;20.50
38114;BMP180;23926;53.222;6.354;2022-09-02T07:51:21;101761.00;;;20.60
38114;BMP180;23926;53.222;6.354;2022-09-02T07:53:47;101763.00;;;20.70
38114;BMP180;23926;53.222;6.354;2022-09-02T07:56:13;101760.00;;;20.60
38114;BMP180;23926;53.222;6.354;2022-09-02T07:58:43;101757.00;;;20.80
38114;BMP180;23926;53.222;6.354;2022-09-02T08:01:10;101761.00;;;20.80
38114;BMP180;23926;53.222;6.354;2022-09-02T08:03:36;101763.00;;;21.00
38114;BMP180;23926;53.222;6.354;2022-09-02T08:06:02;101771.00;;;21.20
38114;BMP180;23926;53.222;6.354;2022-09-02T08:08:28;101760.00;;;21.30
38114;BMP180;23926;53.222;6.354;2022-09-02T08:10:54;101762.00;;;21.40
38114;BMP180;23926;53.222;6.354;2022-09-02T08:13:20;101764.00;;;21.40
38114;BMP180;23926;53.222;6.354;2022-09-02T08:15:46;101757.00;;;21.50
38114;BMP180;23926;53.222;6.354;2022-09-02T08:18:11;101747.00;;;21.60
38114;BMP180;23926;53.222;6.354;2022-09-02T08:20:37;101757.00;;;21.70
38114;BMP180;23926;53.222;6.354;2022-09-02T08:23:04;101760.00;;;21.80
38114;BMP180;23926;53.222;6.354;2022-09-02T08:25:31;101745.00;;;22.00
38114;BMP180;23926;53.222;6.354;2022-09-02T08:27:57;101749.00;;;22.10
38114;BMP180;23926;53.222;6.354;2022-09-02T08:30:22;101751.00;;;22.40
38114;BMP180;23926;53.222;6.354;2022-09-02T08:32:47;101748.00;;;22.30
38114;BMP180;23926;53.222;6.354;2022-09-02T08:35:13;101742.00;;;22.40
38114;BMP180;23926;53.222;6.354;2022-09-02T08:37:38;101743.00;;;22.60
38114;BMP180;23926;53.222;6.354;2022-09-02T08:40:07;101747.00;;;22.60
38114;BMP180;23926;53.222;6.354;2022-09-02T08:42:42;101737.00;;;22.70
38114;BMP180;23926;53.222;6.354;2022-09-02T08:45:22;101742.00;;;22.70
38114;BMP180;23926;53.222;6.354;2022-09-02T08:50:42;101734.00;;;23.10
38114;BMP180;23926;53.222;6.354;2022-09-02T08:55:41;101750.00;;;23.30
38114;BMP180;23926;53.222;6.354;2022-09-02T08:58:07;101744.00;;;23.30
38114;BMP180;23926;53.222;6.354;2022-09-02T09:00:37;101738.00;;;23.30
38114;BMP180;23926;53.222;6.354;2022-09-02T09:03:29;101741.00;;;23.40
38114;BMP180;23926;53.222;6.354;2022-09-02T09:08:55;101738.00;;;23.50
38114;BMP180;23926;53.222;6.354;2022-09-02T09:12:02;101721.00;;;23.60
38114;BMP180;23926;53.222;6.354;2022-09-02T09:17:19;101721.00;;;23.70
38114;BMP180;23926;53.222;6.354;2022-09-02T09:22:14;101719.00;;;23.90
38114;BMP180;23926;53.222;6.354;2022-09-02T09:24:43;101719.00;;;24.00
38114;BMP180;23926;53.222;6.354;2022-09-02T09:27:20;101718.00;;;24.10
38114;BMP180;23926;53.222;6.354;2022-09-02T09:29:50;101708.00;;;24.20
38114;BMP180;23926;53.222;6.354;2022-09-02T09:32:24;101721.00;;;24.30
38114;BMP180;23926;53.222;6.354;2022-09-02T09:39:52;101708.00;;;24.50
38114;BMP180;23926;53.222;6.354;2022-09-02T09:42:30;101712.00;;;24.60
38114;BMP180;23926;53.222;6.354;2022-09-02T09:44:55;101707.00;;;24.60
38114;BMP180;23926;53.222;6.354;2022-09-02T09:47:22;101710.00;;;24.60
38114;BMP180;23926;53.222;6.354;2022-09-02T09:49:52;101697.00;;;24.80
38114;BMP180;23926;53.222;6.354;2022-09-02T09:55:13;101706.00;;;24.80
38114;BMP180;23926;53.222;6.354;2022-09-02T09:57:40;101703.00;;;24.90
38114;BMP180;23926;53.222;6.354;2022-09-02T10:00:13;101697.00;;;24.90
38114;BMP180;23926;53.222;6.354;2022-09-02T10:02:47;101701.00;;;24.90
38114;BMP180;23926;53.222;6.354;2022-09-02T10:05:30;101703.00;;;24.90
38114;BMP180;23926;53.222;6.354;2022-09-02T10:08:05;101697.00;;;25.00
38114;BMP180;23926;53.222;6.354;2022-09-02T10:11:18;101700.00;;;25.00
38114;BMP180;23926;53.222;6.354;2022-09-02T10:13:44;101690.00;;;25.00
38114;BMP180;23926;53.222;6.354;2022-09-02T10:19:28;101692.00;;;25.10
38114;BMP180;23926;53.222;6.354;2022-09-02T10:25:03;101689.00;;;25.20
38114;BMP180;23926;53.222;6.354;2022-09-02T10:31:18;101695.00;;;25.30
38114;BMP180;23926;53.222;6.354;2022-09-02T10:51:23;101665.00;;;25.80
38114;BMP180;23926;53.222;6.354;2022-09-02T10:59:10;101655.00;;;25.90
38114;BMP180;23926;53.222;6.354;2022-09-02T11:01:43;101650.00;;;25.80
38114;BMP180;23926;53.222;6.354;2022-09-02T11:04:35;101648.00;;;25.90
38114;BMP180;23926;53.222;6.354;2022-09-02T11:07:03;101652.00;;;26.00
38114;BMP180;23926;53.222;6.354;2022-09-02T11:09:49;101653.00;;;26.00
38114;BMP180;23926;53.222;6.354;2022-09-02T11:12:20;101641.00;;;26.00
38114;BMP180;23926;53.222;6.354;2022-09-02T11:22:48;101643.00;;;26.20
38114;BMP180;23926;53.222;6.354;2022-09-02T11:25:26;101637.00;;;26.30
38114;BMP180;23926;53.222;6.354;2022-09-02T11:30:25;101638.00;;;26.30
38114;BMP180;23926;53.222;6.354;2022-09-02T11:33:00;101626.00;;;26.50
38114;BMP180;23926;53.222;6.354;2022-09-02T11:35:29;101631.00;;;26.40
38114;BMP180;23926;53.222;6.354;2022-09-02T11:38:08;101629.00;;;26.50
38114;BMP180;23926;53.222;6.354;2022-09-02T11:48:52;101630.00;;;26.80
38114;BMP180;23926;53.222;6.354;2022-09-02T11:54:27;101609.00;;;26.80
38114;BMP180;23926;53.222;6.354;2022-09-02T11:56:58;101616.00;;;26.80
38114;BMP180;23926;53.222;6.354;2022-09-02T12:02:45;101605.00;;;26.90
38114;BMP180;23926;53.222;6.354;2022-09-02T12:08:00;101599.00;;;27.10
38114;BMP180;23926;53.222;6.354;2022-09-02T12:21:26;101592.00;;;27.10
38114;BMP180;23926;53.222;6.354;2022-09-02T12:26:26;101579.00;;;27.00
38114;BMP180;23926;53.222;6.354;2022-09-02T12:31:50;101573.00;;;27.20
38114;BMP180;23926;53.222;6.354;2022-09-02T12:36:52;101572.00;;;27.30
38114;BMP180;23926;53.222;6.354;2022-09-02T12:52:11;101560.00;;;27.50
38114;BMP180;23926;53.222;6.354;2022-09-02T12:54:46;101549.00;;;27.60
38114;BMP180;23926;53.222;6.354;2022-09-02T12:57:15;101553.00;;;27.60
38114;BMP180;23926;53.222;6.354;2022-09-02T12:59:42;101563.00;;;27.60
38114;BMP180;23926;53.222;6.354;2022-09-02T13:02:38;101563.00;;;27.60
38114;BMP180;23926;53.222;6.354;2022-09-02T13:08:00;101551.00;;;27.40
38114;BMP180;23926;53.222;6.354;2022-09-02T13:10:32;101548.00;;;27.40
38114;BMP180;23926;53.222;6.354;2022-09-02T13:18:47;101548.00;;;27.70
38114;BMP180;23926;53.222;6.354;2022-09-02T13:24:41;101546.00;;;27.80
38114;BMP180;23926;53.222;6.354;2022-09-02T13:27:32;101538.00;;;27.80
38114;BMP180;23926;53.222;6.354;2022-09-02T13:30:06;101541.00;;;27.70
38114;BMP180;23926;53.222;6.354;2022-09-02T13:32:32;101540.00;;;27.90
38114;BMP180;23926;53.222;6.354;2022-09-02T13:35:02;101542.00;;;27.90
38114;BMP180;23926;53.222;6.354;2022-09-02T13:37:30;101539.00;;;28.00
38114;BMP180;23926;53.222;6.354;2022-09-02T13:39:56;101531.00;;;28.00
38114;BMP180;23926;53.222;6.354;2022-09-02T13:42:27;101537.00;;;28.10
38114;BMP180;23926;53.222;6.354;2022-09-02T13:45:12;101543.00;;;28.20
38114;BMP180;23926;53.222;6.354;2022-09-02T13:47:42;101542.00;;;28.10
38114;BMP180;23926;53.222;6.354;2022-09-02T13:50:09;101524.00;;;28.00
38114;BMP180;23926;53.222;6.354;2022-09-02T13:52:36;101529.00;;;27.90
38114;BMP180;23926;53.222;6.354;2022-09-02T13:55:03;101527.00;;;28.00
38114;BMP180;23926;53.222;6.354;2022-09-02T13:57:30;101522.00;;;27.80
38114;BMP180;23926;53.222;6.354;2022-09-02T13:59:56;101520.00;;;27.90
38114;BMP180;23926;53.222;6.354;2022-09-02T14:02:33;101511.00;;;28.00
38114;BMP180;23926;53.222;6.354;2022-09-02T14:05:06;101515.00;;;27.90
38114;BMP180;23926;53.222;6.354;2022-09-02T14:07:43;101498.00;;;28.00
38114;BMP180;23926;53.222;6.354;2022-09-02T14:10:12;101506.00;;;28.10
38114;BMP180;23926;53.222;6.354;2022-09-02T14:12:40;101508.00;;;28.00
38114;BMP180;23926;53.222;6.354;2022-09-02T14:15:10;101505.00;;;28.10
38114;BMP180;23926;53.222;6.354;2022-09-02T14:17:36;101502.00;;;28.10
38114;BMP180;23926;53.222;6.354;2022-09-02T14:22:33;101501.00;;;28.00
38114;BMP180;23926;53.222;6.354;2022-09-02T14:25:12;101500.00;;;28.00
38114;BMP180;23926;53.222;6.354;2022-09-02T14:27:39;101496.00;;;28.10
38114;BMP180;23926;53.222;6.354;2022-09-02T14:30:05;101493.00;;;28.10
38114;BMP180;23926;53.222;6.354;2022-09-02T14:32:34;101490.00;;;28.10
38114;BMP180;23926;53.222;6.354;2022-09-02T14:35:32;101475.00;;;28.20
38114;BMP180;23926;53.222;6.354;2022-09-02T14:37:57;101473.00;;;28.30
38114;BMP180;23926;53.222;6.354;2022-09-02T14:40:40;101476.00;;;28.30
38114;BMP180;23926;53.222;6.354;2022-09-02T14:43:12;101481.00;;;28.40
38114;BMP180;23926;53.222;6.354;2022-09-02T14:45:43;101465.00;;;28.40
38114;BMP180;23926;53.222;6.354;2022-09-02T14:48:17;101474.00;;;28.50
38114;BMP180;23926;53.222;6.354;2022-09-02T14:50:44;101471.00;;;28.70
38114;BMP180;23926;53.222;6.354;2022-09-02T14:53:10;101466.00;;;28.60
38114;BMP180;23926;53.222;6.354;2022-09-02T14:55:43;101468.00;;;28.60
38114;BMP180;23926;53.222;6.354;2022-09-02T14:58:09;101462.00;;;28.60
38114;BMP180;23926;53.222;6.354;2022-09-02T15:00:34;101462.00;;;28.60
38114;BMP180;23926;53.222;6.354;2022-09-02T15:03:03;101464.00;;;28.70
38114;BMP180;23926;53.222;6.354;2022-09-02T15:05:29;101473.00;;;28.70
38114;BMP180;23926;53.222;6.354;2022-09-02T15:07:54;101474.00;;;28.80
38114;BMP180;23926;53.222;6.354;2022-09-02T15:10:21;101470.00;;;28.90
38114;BMP180;23926;53.222;6.354;2022-09-02T15:12:56;101470.00;;;28.90
38114;BMP180;23926;53.222;6.354;2022-09-02T15:15:22;101472.00;;;28.90
38114;BMP180;23926;53.222;6.354;2022-09-02T15:17:47;101467.00;;;28.90
38114;BMP180;23926;53.222;6.354;2022-09-02T15:20:13;101472.00;;;28.90
38114;BMP180;23926;53.222;6.354;2022-09-02T15:22:39;101467.00;;;29.00
38114;BMP180;23926;53.222;6.354;2022-09-02T15:25:05;101454.00;;;29.10
38114;BMP180;23926;53.222;6.354;2022-09-02T15:27:34;101454.00;;;29.10
38114;BMP180;23926;53.222;6.354;2022-09-02T15:30:01;101455.00;;;29.00
38114;BMP180;23926;53.222;6.354;2022-09-02T15:32:27;101450.00;;;29.00
38114;BMP180;23926;53.222;6.354;2022-09-02T15:34:52;101447.00;;;29.00
38114;BMP180;23926;53.222;6.354;2022-09-02T15:37:18;101447.00;;;29.10
38114;BMP180;23926;53.222;6.354;2022-09-02T15:39:43;101446.00;;;29.00
38114;BMP180;23926;53.222;6.354;2022-09-02T15:42:09;101446.00;;;29.00
38114;BMP180;23926;53.222;6.354;2022-09-02T15:44:34;101446.00;;;29.00
38114;BMP180;23926;53.222;6.354;2022-09-02T15:46:59;101446.00;;;28.90
38114;BMP180;23926;53.222;6.354;2022-09-02T15:49:25;101442.00;;;29.00
38114;BMP180;23926;53.222;6.354;2022-09-02T15:51:51;101440.00;;;28.90
38114;BMP180;23926;53.222;6.354;2022-09-02T15:54:19;101437.00;;;28.80
38114;BMP180;23926;53.222;6.354;2022-09-02T15:56:46;101427.00;;;28.80
38114;BMP180;23926;53.222;6.354;2022-09-02T15:59:13;101434.00;;;28.70
38114;BMP180;23926;53.222;6.354;2022-09-02T16:01:40;101421.00;;;28.60
38114;BMP180;23926;53.222;6.354;2022-09-02T16:04:08;101431.00;;;28.70
38114;BMP180;23926;53.222;6.354;2022-09-02T16:06:35;101432.00;;;29.00
38114;BMP180;23926;53.222;6.354;2022-09-02T16:09:03;101420.00;;;29.30
38114;BMP180;23926;53.222;6.354;2022-09-02T16:11:28;101415.00;;;29.60